createdAt,value
2019-02-16T00:00:15.140Z,-2.98
2019-02-16T00:01:15.198Z,-3.00
2019-02-16T00:02:15.466Z,-2.98
2019-02-16T00:03:14.734Z,-3.00
2019-02-16T00:04:15.000Z,-3.05
2019-02-16T00:05:15.265Z,-3.01
2019-02-16T00:06:14.530Z,-3.04
2019-02-16T00:07:14.795Z,-3.07
2019-02-16T00:08:15.069Z,-3.01
2019-02-16T00:09:15.332Z,-3.01
2019-02-16T00:10:14.598Z,-3.01
2019-02-16T00:11:14.673Z,-3.02
2019-02-16T00:12:14.938Z,-3.07
2019-02-16T00:13:15.196Z,-3.12
2019-02-16T00:14:15.462Z,-3.08
2019-02-16T00:15:14.730Z,-3.09
2019-02-16T00:16:14.994Z,-3.04
2019-02-16T00:17:15.262Z,-3.11
2019-02-16T00:18:14.529Z,-3.12
2019-02-16T00:19:14.788Z,-3.15
2019-02-16T00:20:15.061Z,-3.11
2019-02-16T00:21:15.094Z,-3.11
2019-02-16T00:22:15.348Z,-3.12
2019-02-16T00:23:14.638Z,-3.11
2019-02-16T00:24:14.897Z,-3.09
2019-02-16T00:25:15.150Z,-3.13
2019-02-16T00:26:15.413Z,-3.16
2019-02-16T00:27:14.682Z,-3.11
2019-02-16T00:28:15.001Z,-3.18
2019-02-16T00:29:15.264Z,-3.18
2019-02-16T00:30:14.541Z,-3.19
2019-02-16T00:31:14.591Z,-3.18
2019-02-16T00:32:14.914Z,-3.15
2019-02-16T00:33:15.181Z,-3.12
2019-02-16T00:34:15.449Z,-3.22
2019-02-16T00:35:14.723Z,-3.13
2019-02-16T00:36:14.992Z,-3.12
2019-02-16T00:37:15.252Z,-3.13
2019-02-16T00:38:14.527Z,-3.18
2019-02-16T00:39:14.795Z,-3.16
2019-02-16T00:40:15.085Z,-3.15
2019-02-16T00:41:15.107Z,-3.22
2019-02-16T00:42:15.369Z,-3.28
2019-02-16T00:43:14.627Z,-3.37
2019-02-16T00:44:14.888Z,-3.41
2019-02-16T00:45:15.207Z,-3.47
2019-02-16T00:46:15.472Z,-3.50
2019-02-16T00:47:14.745Z,-3.51
2019-02-16T00:48:15.011Z,-3.49
2019-02-16T00:49:15.287Z,-3.50
2019-02-16T00:50:14.558Z,-3.47
2019-02-16T00:51:14.601Z,-3.49
2019-02-16T00:52:14.872Z,-3.40
2019-02-16T00:53:15.144Z,-3.35
2019-02-16T00:54:15.421Z,-3.35
2019-02-16T00:55:14.677Z,-3.33
2019-02-16T00:56:14.948Z,-3.35
2019-02-16T00:57:15.205Z,-3.39
2019-02-16T00:58:15.472Z,-3.36
2019-02-16T00:59:14.729Z,-3.33
2019-02-16T01:00:15.016Z,-3.30
2019-02-16T01:01:15.043Z,-3.32
2019-02-16T01:02:15.312Z,-3.32
2019-02-16T01:03:14.562Z,-3.35
2019-02-16T01:04:14.830Z,-3.29
2019-02-16T01:05:15.064Z,-3.23
2019-02-16T01:06:15.325Z,-3.22
2019-02-16T01:07:14.585Z,-3.19
2019-02-16T01:08:14.845Z,-3.21
2019-02-16T01:09:15.109Z,-3.25
2019-02-16T01:10:15.383Z,-3.28
2019-02-16T01:11:15.417Z,-3.29
2019-02-16T01:12:14.685Z,-3.29
2019-02-16T01:13:14.959Z,-3.30
2019-02-16T01:14:15.220Z,-3.36
2019-02-16T01:15:14.478Z,-3.33
2019-02-16T01:16:14.736Z,-3.28
2019-02-16T01:17:14.993Z,-3.25
2019-02-16T01:18:15.275Z,-3.30
2019-02-16T01:19:14.544Z,-3.29
2019-02-16T01:20:14.822Z,-3.26
2019-02-16T01:21:22.388Z,-3.35
2019-02-16T01:22:15.460Z,-3.41
2019-02-16T01:23:14.727Z,-3.49
2019-02-16T01:24:14.987Z,-3.49
2019-02-16T01:25:15.260Z,-3.44
2019-02-16T01:26:14.524Z,-3.39
2019-02-16T01:27:14.787Z,-3.39
2019-02-16T01:28:15.052Z,-3.36
2019-02-16T01:29:15.327Z,-3.44
2019-02-16T01:30:14.603Z,-3.49
2019-02-16T01:31:14.654Z,-3.46
2019-02-16T01:32:14.920Z,-3.41
2019-02-16T01:33:15.191Z,-3.40
2019-02-16T01:34:15.458Z,-3.46
2019-02-16T01:35:14.731Z,-3.49
2019-02-16T01:36:15.021Z,-3.47
2019-02-16T01:37:15.289Z,-3.44
2019-02-16T01:38:14.551Z,-3.51
2019-02-16T01:39:14.823Z,-3.50
2019-02-16T01:40:15.092Z,-3.47
2019-02-16T01:41:15.122Z,-3.43
2019-02-16T01:42:15.394Z,-3.43
2019-02-16T01:43:14.668Z,-3.51
2019-02-16T01:44:14.931Z,-3.54
2019-02-16T01:45:15.201Z,-3.57
2019-02-16T01:46:15.463Z,-3.61
2019-02-16T01:47:14.795Z,-3.67
2019-02-16T01:48:15.064Z,-3.74
2019-02-16T01:49:15.329Z,-3.73
2019-02-16T01:50:14.627Z,-3.81
2019-02-16T01:51:14.670Z,-3.88
2019-02-16T01:52:14.937Z,-3.93
2019-02-16T01:53:15.199Z,-3.91
2019-02-16T01:54:15.459Z,-3.93
2019-02-16T01:55:14.725Z,-3.91
2019-02-16T01:56:14.995Z,-3.90
2019-02-16T01:57:15.256Z,-3.86
2019-02-16T01:58:14.527Z,-3.83
2019-02-16T01:59:14.791Z,-3.81
2019-02-16T02:00:15.062Z,-3.80
2019-02-16T02:01:15.129Z,-3.80
2019-02-16T02:02:15.384Z,-3.78
2019-02-16T02:03:14.638Z,-3.78
2019-02-16T02:04:14.903Z,-3.78
2019-02-16T02:05:15.170Z,-3.83
2019-02-16T02:06:15.426Z,-3.83
2019-02-16T02:07:14.694Z,-3.78
2019-02-16T02:08:14.961Z,-3.76
2019-02-16T02:09:15.230Z,-3.76
2019-02-16T02:10:14.607Z,-3.77
2019-02-16T02:11:14.603Z,-3.76
2019-02-16T02:12:14.883Z,-3.77
2019-02-16T02:13:15.165Z,-3.80
2019-02-16T02:14:14.503Z,-3.80
2019-02-16T02:15:14.771Z,-3.77
2019-02-16T02:16:15.032Z,-3.76
2019-02-16T02:17:15.288Z,-3.84
2019-02-16T02:18:14.552Z,-3.83
2019-02-16T02:19:14.811Z,-3.83
2019-02-16T02:20:15.085Z,-3.84
2019-02-16T02:21:15.149Z,-3.80
2019-02-16T02:22:15.416Z,-3.81
2019-02-16T02:23:14.688Z,-3.80
2019-02-16T02:24:14.946Z,-3.87
2019-02-16T02:25:15.218Z,-3.86
2019-02-16T02:26:14.483Z,-3.81
2019-02-16T02:27:14.749Z,-3.84
2019-02-16T02:28:15.018Z,-3.83
2019-02-16T02:29:15.279Z,-3.90
2019-02-16T02:30:14.565Z,-3.91
2019-02-16T02:31:14.606Z,-3.90
2019-02-16T02:32:14.873Z,-3.87
2019-02-16T02:33:15.147Z,-3.90
2019-02-16T02:34:15.424Z,-3.90
2019-02-16T02:35:14.694Z,-3.95
2019-02-16T02:36:14.954Z,-3.93
2019-02-16T02:37:15.229Z,-3.98
2019-02-16T02:38:14.503Z,-3.98
2019-02-16T02:39:14.770Z,-3.97
2019-02-16T02:40:15.049Z,-3.95
2019-02-16T02:41:15.079Z,-3.97
2019-02-16T02:42:14.473Z,-3.94
2019-02-16T02:43:14.733Z,-3.91
2019-02-16T02:44:15.011Z,-3.94
2019-02-16T02:45:15.290Z,-3.95
2019-02-16T02:46:14.582Z,-3.94
2019-02-16T02:47:14.864Z,-3.94
2019-02-16T02:48:15.123Z,-3.91
2019-02-16T02:49:15.388Z,-3.87
2019-02-16T02:50:14.672Z,-3.87
2019-02-16T02:51:14.736Z,-3.91
2019-02-16T02:52:15.002Z,-3.86
2019-02-16T02:53:15.262Z,-3.86
2019-02-16T02:54:14.545Z,-3.84
2019-02-16T02:55:14.825Z,-3.81
2019-02-16T02:56:15.094Z,-3.88
2019-02-16T02:57:15.366Z,-3.93
2019-02-16T02:58:14.644Z,-3.94
2019-02-16T02:59:14.963Z,-3.95
2019-02-16T03:00:15.257Z,-3.91
2019-02-16T03:01:15.302Z,-3.88
2019-02-16T03:02:14.568Z,-3.93
2019-02-16T03:03:14.831Z,-3.91
2019-02-16T03:04:15.094Z,-3.91
2019-02-16T03:05:15.372Z,-3.88
2019-02-16T03:06:14.654Z,-3.98
2019-02-16T03:07:14.924Z,-4.01
2019-02-16T03:08:15.206Z,-4.04
2019-02-16T03:09:14.482Z,-4.14
2019-02-16T03:10:14.775Z,-4.15
2019-02-16T03:11:14.806Z,-4.15
2019-02-16T03:12:15.072Z,-4.19
2019-02-16T03:13:15.343Z,-4.18
2019-02-16T03:14:14.612Z,-4.19
2019-02-16T03:15:14.883Z,-4.19
2019-02-16T03:16:15.153Z,-4.16
2019-02-16T03:17:15.418Z,-4.15
2019-02-16T03:18:14.685Z,-4.14
2019-02-16T03:19:14.968Z,-4.14
2019-02-16T03:20:15.544Z,-4.14
2019-02-16T03:21:15.287Z,-4.12
2019-02-16T03:22:14.544Z,-4.14
2019-02-16T03:23:14.817Z,-4.15
2019-02-16T03:24:15.092Z,-4.21
2019-02-16T03:25:15.367Z,-4.23
2019-02-16T03:26:14.625Z,-4.25
2019-02-16T03:27:14.887Z,-4.26
2019-02-16T03:28:15.153Z,-4.26
2019-02-16T03:29:15.426Z,-4.25
2019-02-16T03:30:15.058Z,-4.26
2019-02-16T03:31:15.104Z,-4.23
2019-02-16T03:32:15.392Z,-4.29
2019-02-16T03:33:14.670Z,-4.29
2019-02-16T03:34:14.964Z,-4.30
2019-02-16T03:35:15.250Z,-4.29
2019-02-16T03:36:14.523Z,-4.32
2019-02-16T03:37:14.803Z,-4.30
2019-02-16T03:38:15.088Z,-4.30
2019-02-16T03:39:15.363Z,-4.30
2019-02-16T03:40:14.643Z,-4.33
2019-02-16T03:41:14.702Z,-4.33
2019-02-16T03:42:15.011Z,-4.33
2019-02-16T03:43:15.275Z,-4.36
2019-02-16T03:44:14.538Z,-4.36
2019-02-16T03:45:14.802Z,-4.35
2019-02-16T03:46:15.062Z,-4.36
2019-02-16T03:47:15.323Z,-4.39
2019-02-16T03:48:14.603Z,-4.39
2019-02-16T03:49:14.867Z,-4.36
2019-02-16T03:50:15.127Z,-4.37
2019-02-16T03:51:15.176Z,-4.43
2019-02-16T03:52:15.463Z,-4.42
2019-02-16T03:53:14.731Z,-4.40
2019-02-16T03:54:14.992Z,-4.37
2019-02-16T03:55:15.261Z,-4.37
2019-02-16T03:56:14.540Z,-4.39
2019-02-16T03:57:14.810Z,-4.36
2019-02-16T03:58:15.072Z,-4.33
2019-02-16T03:59:15.344Z,-4.32
2019-02-16T04:00:14.626Z,-4.36
2019-02-16T04:01:14.705Z,-4.33
2019-02-16T04:02:14.980Z,-4.32
2019-02-16T04:03:15.253Z,-4.30
2019-02-16T04:04:14.522Z,-4.36
2019-02-16T04:05:14.778Z,-4.33
2019-02-16T04:06:15.043Z,-4.33
2019-02-16T04:07:15.308Z,-4.30
2019-02-16T04:08:14.577Z,-4.29
2019-02-16T04:09:14.866Z,-4.32
2019-02-16T04:10:15.142Z,-4.29
2019-02-16T04:11:15.201Z,-4.29
2019-02-16T04:12:15.463Z,-4.30
2019-02-16T04:13:14.733Z,-4.29
2019-02-16T04:14:15.009Z,-4.29
2019-02-16T04:15:15.269Z,-4.25
2019-02-16T04:16:14.553Z,-4.26
2019-02-16T04:17:14.830Z,-4.26
2019-02-16T04:18:15.127Z,-4.25
2019-02-16T04:19:15.429Z,-4.26
2019-02-16T04:20:14.720Z,-4.40
2019-02-16T04:21:14.753Z,-4.46
2019-02-16T04:22:24.115Z,-4.47
2019-02-16T04:23:15.335Z,-4.47
2019-02-16T04:24:14.604Z,-4.43
2019-02-16T04:25:14.912Z,-4.37
2019-02-16T04:26:15.191Z,-4.46
2019-02-16T04:27:15.461Z,-4.47
2019-02-16T04:28:14.742Z,-4.53
2019-02-16T04:29:15.023Z,-4.49
2019-02-16T04:30:15.305Z,-4.46
2019-02-16T04:31:15.366Z,-4.53
2019-02-16T04:32:14.627Z,-4.60
2019-02-16T04:33:14.901Z,-4.64
2019-02-16T04:34:15.165Z,-4.71
2019-02-16T04:35:15.435Z,-4.75
2019-02-16T04:36:14.706Z,-4.78
2019-02-16T04:37:14.966Z,-4.80
2019-02-16T04:38:15.226Z,-4.78
2019-02-16T04:39:14.490Z,-4.73
2019-02-16T04:40:14.769Z,-4.74
2019-02-16T04:41:14.809Z,-4.73
2019-02-16T04:42:15.078Z,-4.81
2019-02-16T04:43:15.360Z,-4.85
2019-02-16T04:44:14.628Z,-4.86
2019-02-16T04:45:14.932Z,-4.86
2019-02-16T04:46:15.197Z,-4.88
2019-02-16T04:47:15.472Z,-4.96
2019-02-16T04:48:14.738Z,-4.86
2019-02-16T04:49:14.990Z,-4.85
2019-02-16T04:50:15.270Z,-4.82
2019-02-16T04:51:15.302Z,-4.82
2019-02-16T04:52:14.573Z,-4.81
2019-02-16T04:53:14.836Z,-4.78
2019-02-16T04:54:15.100Z,-4.81
2019-02-16T04:55:15.378Z,-4.77
2019-02-16T04:56:14.646Z,-4.70
2019-02-16T04:57:14.912Z,-4.60
2019-02-16T04:58:15.189Z,-4.60
2019-02-16T04:59:15.472Z,-4.49
2019-02-16T05:00:14.765Z,-4.45
2019-02-16T05:01:14.808Z,-4.40
2019-02-16T05:02:15.084Z,-4.45
2019-02-16T05:03:15.376Z,-4.54
2019-02-16T05:04:14.650Z,-4.47
2019-02-16T05:05:14.919Z,-4.50
2019-02-16T05:06:15.188Z,-4.47
2019-02-16T05:07:15.467Z,-4.47
2019-02-16T05:08:14.744Z,-4.45
2019-02-16T05:09:15.026Z,-4.54
2019-02-16T05:10:15.302Z,-4.56
2019-02-16T05:11:15.632Z,-4.57
2019-02-16T05:12:14.908Z,-4.56
2019-02-16T05:13:15.164Z,-4.64
2019-02-16T05:14:15.448Z,-4.70
2019-02-16T05:15:14.741Z,-4.75
2019-02-16T05:16:15.035Z,-4.77
2019-02-16T05:17:15.306Z,-4.75
2019-02-16T05:18:14.576Z,-4.75
2019-02-16T05:19:14.854Z,-4.74
2019-02-16T05:20:15.129Z,-4.75
2019-02-16T05:21:15.186Z,-4.78
2019-02-16T05:22:15.470Z,-4.86
2019-02-16T05:23:14.729Z,-4.89
2019-02-16T05:24:15.000Z,-4.95
2019-02-16T05:25:15.280Z,-4.98
2019-02-16T05:26:14.577Z,-4.98
2019-02-16T05:27:14.844Z,-4.99
2019-02-16T05:28:15.118Z,-4.99
2019-02-16T05:29:15.393Z,-5.02
2019-02-16T05:30:14.679Z,-5.01
2019-02-16T05:31:14.733Z,-4.98
2019-02-16T05:32:14.993Z,-4.86
2019-02-16T05:33:15.332Z,-4.77
2019-02-16T05:34:14.608Z,-4.74
2019-02-16T05:35:14.888Z,-4.65
2019-02-16T05:36:15.233Z,-4.65
2019-02-16T05:37:14.502Z,-4.61
2019-02-16T05:38:14.772Z,-4.52
2019-02-16T05:39:15.048Z,-4.46
2019-02-16T05:40:15.326Z,-4.50
2019-02-16T05:41:15.385Z,-4.56
2019-02-16T05:42:14.662Z,-4.61
2019-02-16T05:43:14.926Z,-4.57
2019-02-16T05:44:15.216Z,-4.45
2019-02-16T05:45:14.489Z,-4.50
2019-02-16T05:46:14.756Z,-4.53
2019-02-16T05:47:15.016Z,-4.53
2019-02-16T05:48:15.278Z,-4.58
2019-02-16T05:49:14.625Z,-4.54
2019-02-16T05:50:14.897Z,-4.58
2019-02-16T05:51:14.942Z,-4.54
2019-02-16T05:52:15.233Z,-4.58
2019-02-16T05:53:14.510Z,-4.52
2019-02-16T05:54:14.769Z,-4.49
2019-02-16T05:55:15.036Z,-4.56
2019-02-16T05:56:15.305Z,-4.68
2019-02-16T05:57:14.566Z,-4.68
2019-02-16T05:58:14.837Z,-4.71
2019-02-16T05:59:15.105Z,-4.75
2019-02-16T06:00:15.391Z,-4.77
2019-02-16T06:01:15.440Z,-4.74
2019-02-16T06:02:14.708Z,-4.73
2019-02-16T06:03:14.971Z,-4.65
2019-02-16T06:04:15.248Z,-4.64
2019-02-16T06:05:14.525Z,-4.64
2019-02-16T06:06:14.803Z,-4.61
2019-02-16T06:07:15.064Z,-4.77
2019-02-16T06:08:15.327Z,-4.82
2019-02-16T06:09:14.610Z,-4.89
2019-02-16T06:10:14.880Z,-4.92
2019-02-16T06:11:14.938Z,-4.92
2019-02-16T06:12:15.211Z,-4.98
2019-02-16T06:13:14.488Z,-4.94
2019-02-16T06:14:14.757Z,-4.98
2019-02-16T06:15:15.028Z,-4.92
2019-02-16T06:16:15.295Z,-4.91
2019-02-16T06:17:14.573Z,-4.94
2019-02-16T06:18:14.837Z,-4.99
2019-02-16T06:19:15.212Z,-4.99
2019-02-16T06:20:14.504Z,-4.98
2019-02-16T06:21:14.540Z,-4.94
2019-02-16T06:22:14.803Z,-5.02
2019-02-16T06:23:15.073Z,-5.02
2019-02-16T06:24:15.339Z,-4.95
2019-02-16T06:25:14.625Z,-4.94
2019-02-16T06:26:14.894Z,-4.92
2019-02-16T06:27:15.155Z,-4.89
2019-02-16T06:28:15.423Z,-4.86
2019-02-16T06:29:14.690Z,-4.78
2019-02-16T06:30:14.976Z,-4.77
2019-02-16T06:31:15.016Z,-4.78
2019-02-16T06:32:15.546Z,-4.71
2019-02-16T06:33:14.818Z,-4.70
2019-02-16T06:34:15.079Z,-4.68
2019-02-16T06:35:15.370Z,-4.67
2019-02-16T06:36:14.663Z,-4.60
2019-02-16T06:37:14.942Z,-4.63
2019-02-16T06:38:15.215Z,-4.35
2019-02-16T06:39:14.544Z,-4.33
2019-02-16T06:40:14.833Z,-4.19
2019-02-16T06:41:14.864Z,-4.18
2019-02-16T06:42:15.139Z,-4.33
2019-02-16T06:43:15.408Z,-4.33
2019-02-16T06:44:14.700Z,-4.30
2019-02-16T06:45:14.976Z,-4.35
2019-02-16T06:46:15.243Z,-4.36
2019-02-16T06:47:14.512Z,-4.32
2019-02-16T06:48:15.081Z,-4.32
2019-02-16T06:49:15.342Z,-4.30
2019-02-16T06:50:14.617Z,-4.26
2019-02-16T06:51:15.014Z,-4.27
2019-02-16T06:52:15.333Z,-4.27
2019-02-16T06:53:14.608Z,-4.25
2019-02-16T06:54:14.884Z,-4.25
2019-02-16T06:55:15.157Z,-4.25
2019-02-16T06:56:15.418Z,-4.23
2019-02-16T06:57:14.683Z,-4.19
2019-02-16T06:58:14.965Z,-4.18
2019-02-16T06:59:15.233Z,-4.21
2019-02-16T07:00:14.514Z,-4.23
2019-02-16T07:01:14.564Z,-4.23
2019-02-16T07:02:14.856Z,-4.18
2019-02-16T07:03:15.113Z,-4.15
2019-02-16T07:04:15.385Z,-4.14
2019-02-16T07:05:14.657Z,-4.15
2019-02-16T07:06:14.931Z,-4.14
2019-02-16T07:07:15.199Z,-4.16
2019-02-16T07:08:15.474Z,-4.15
2019-02-16T07:09:14.733Z,-4.19
2019-02-16T07:10:15.003Z,-4.21
2019-02-16T07:11:15.050Z,-4.18
2019-02-16T07:12:15.312Z,-4.09
2019-02-16T07:13:14.574Z,-4.14
2019-02-16T07:14:14.851Z,-4.16
2019-02-16T07:15:15.126Z,-4.16
2019-02-16T07:16:15.392Z,-4.18
2019-02-16T07:17:14.653Z,-4.21
2019-02-16T07:18:14.921Z,-4.25
2019-02-16T07:19:15.191Z,-4.29
2019-02-16T07:20:15.461Z,-4.26
2019-02-16T07:21:14.516Z,-4.26
2019-02-16T07:22:14.774Z,-4.30
2019-02-16T07:23:22.112Z,-4.26
2019-02-16T07:24:15.153Z,-4.25
2019-02-16T07:25:15.431Z,-4.26
2019-02-16T07:26:14.695Z,-4.25
2019-02-16T07:27:14.965Z,-4.19
2019-02-16T07:28:15.220Z,-4.18
2019-02-16T07:29:14.475Z,-4.15
2019-02-16T07:30:14.745Z,-4.09
2019-02-16T07:31:15.874Z,-4.08
2019-02-16T07:32:15.273Z,-4.08
2019-02-16T07:33:14.535Z,-4.04
2019-02-16T07:34:14.805Z,-4.02
2019-02-16T07:35:15.073Z,-3.99
2019-02-16T07:36:15.333Z,-3.93
2019-02-16T07:37:14.610Z,-3.94
2019-02-16T07:38:14.885Z,-3.87
2019-02-16T07:39:15.151Z,-3.83
2019-02-16T07:40:15.421Z,-3.78
2019-02-16T07:41:14.471Z,-3.80
2019-02-16T07:42:14.738Z,-3.71
2019-02-16T07:43:14.995Z,-3.68
2019-02-16T07:44:15.271Z,-3.64
2019-02-16T07:45:14.549Z,-3.63
2019-02-16T07:46:14.818Z,-3.60
2019-02-16T07:47:15.084Z,-3.54
2019-02-16T07:48:15.345Z,-3.49
2019-02-16T07:49:14.627Z,-3.44
2019-02-16T07:50:14.906Z,-3.47
2019-02-16T07:51:14.946Z,-3.43
2019-02-16T07:52:15.215Z,-3.32
2019-02-16T07:53:14.484Z,-3.26
2019-02-16T07:54:14.761Z,-3.23
2019-02-16T07:55:15.035Z,-3.16
2019-02-16T07:56:15.290Z,-3.12
2019-02-16T07:57:14.567Z,-3.11
2019-02-16T07:58:14.831Z,-3.09
2019-02-16T07:59:15.105Z,-3.09
2019-02-16T08:00:15.390Z,-3.00
2019-02-16T08:01:15.406Z,-2.95
2019-02-16T08:02:14.683Z,-3.01
2019-02-16T08:03:14.952Z,-2.97
2019-02-16T08:04:15.215Z,-2.92
2019-02-16T08:05:14.484Z,-2.70
2019-02-16T08:06:14.757Z,-2.66
2019-02-16T08:07:15.032Z,-2.63
2019-02-16T08:08:15.314Z,-2.62
2019-02-16T08:09:14.575Z,-2.63
2019-02-16T08:10:14.882Z,-2.59
2019-02-16T08:11:14.886Z,-2.48
2019-02-16T08:12:15.153Z,-2.42
2019-02-16T08:13:15.416Z,-2.35
2019-02-16T08:14:14.697Z,-2.31
2019-02-16T08:15:14.958Z,-2.14
2019-02-16T08:16:15.244Z,-1.83
2019-02-16T08:17:14.515Z,-1.80
2019-02-16T08:18:14.774Z,-1.70
2019-02-16T08:19:15.045Z,-1.60
2019-02-16T08:20:15.330Z,-1.28
2019-02-16T08:21:15.370Z,-1.26
2019-02-16T08:22:14.637Z,-1.25
2019-02-16T08:23:14.905Z,-1.05
2019-02-16T08:24:15.172Z,-1.11
2019-02-16T08:25:15.444Z,-0.97
2019-02-16T08:26:14.708Z,-0.84
2019-02-16T08:27:14.968Z,-0.90
2019-02-16T08:28:15.236Z,-0.97
2019-02-16T08:29:14.497Z,-0.76
2019-02-16T08:30:14.771Z,-0.76
2019-02-16T08:31:14.829Z,-0.66
2019-02-16T08:32:15.109Z,-0.36
2019-02-16T08:33:15.366Z,-0.10
2019-02-16T08:34:14.628Z,-0.07
2019-02-16T08:35:14.902Z,0.17
2019-02-16T08:36:15.166Z,0.38
2019-02-16T08:37:15.446Z,0.55
2019-02-16T08:38:14.716Z,0.38
2019-02-16T08:39:14.990Z,0.51
2019-02-16T08:40:15.260Z,0.57
2019-02-16T08:41:15.310Z,0.45
2019-02-16T08:42:14.563Z,0.33
2019-02-16T08:43:14.826Z,0.63
2019-02-16T08:44:15.112Z,0.63
2019-02-16T08:45:15.374Z,0.41
2019-02-16T08:46:14.629Z,0.41
2019-02-16T08:47:14.906Z,0.38
2019-02-16T08:48:15.177Z,0.54
2019-02-16T08:49:15.443Z,0.53
2019-02-16T08:50:14.719Z,0.57
2019-02-16T08:51:14.763Z,0.58
2019-02-16T08:52:15.039Z,0.53
2019-02-16T08:53:15.312Z,0.64
2019-02-16T08:54:14.572Z,0.65
2019-02-16T08:55:14.840Z,0.63
2019-02-16T08:56:15.117Z,0.68
2019-02-16T08:57:15.404Z,0.75
2019-02-16T08:58:14.667Z,0.69
2019-02-16T08:59:14.931Z,0.63
2019-02-16T09:00:15.202Z,0.58
2019-02-16T09:01:15.258Z,0.60
2019-02-16T09:02:14.519Z,0.69
2019-02-16T09:03:14.786Z,0.71
2019-02-16T09:04:15.051Z,0.82
2019-02-16T09:05:15.314Z,0.99
2019-02-16T09:06:14.577Z,0.91
2019-02-16T09:07:14.848Z,1.00
2019-02-16T09:08:15.108Z,0.98
2019-02-16T09:09:15.375Z,1.02
2019-02-16T09:10:14.664Z,1.02
2019-02-16T09:11:14.727Z,1.07
2019-02-16T09:12:14.999Z,1.16
2019-02-16T09:13:15.267Z,1.27
2019-02-16T09:14:14.536Z,1.51
2019-02-16T09:15:14.806Z,1.81
2019-02-16T09:16:15.074Z,1.88
2019-02-16T09:17:15.369Z,2.03
2019-02-16T09:18:14.642Z,1.99
2019-02-16T09:19:14.907Z,1.67
2019-02-16T09:20:15.186Z,1.79
2019-02-16T09:21:15.313Z,1.79
2019-02-16T09:22:14.633Z,1.90
2019-02-16T09:23:14.904Z,2.45
2019-02-16T09:24:15.176Z,2.36
2019-02-16T09:25:15.450Z,2.23
2019-02-16T09:26:14.718Z,2.21
2019-02-16T09:27:14.982Z,2.50
2019-02-16T09:28:15.241Z,2.32
2019-02-16T09:29:14.507Z,2.48
2019-02-16T09:30:14.795Z,2.40
2019-02-16T09:31:14.842Z,2.72
2019-02-16T09:32:15.109Z,2.48
2019-02-16T09:33:15.379Z,2.51
2019-02-16T09:34:14.653Z,2.43
2019-02-16T09:35:14.928Z,2.60
2019-02-16T09:36:15.190Z,2.89
2019-02-16T09:37:15.453Z,2.91
2019-02-16T09:38:14.731Z,2.85
2019-02-16T09:39:14.994Z,2.86
2019-02-16T09:40:15.321Z,3.47
2019-02-16T09:41:15.333Z,3.61
2019-02-16T09:42:14.601Z,3.41
2019-02-16T09:43:14.862Z,3.23
2019-02-16T09:44:15.135Z,3.13
2019-02-16T09:45:15.401Z,3.13
2019-02-16T09:46:14.669Z,3.27
2019-02-16T09:47:14.933Z,3.28
2019-02-16T09:48:15.202Z,3.41
2019-02-16T09:49:15.471Z,3.41
2019-02-16T09:50:14.744Z,3.49
2019-02-16T09:51:14.794Z,4.36
2019-02-16T09:52:15.053Z,4.50
2019-02-16T09:53:15.595Z,4.43
2019-02-16T09:54:14.861Z,4.46
2019-02-16T09:55:15.127Z,4.10
2019-02-16T09:56:15.394Z,3.96
2019-02-16T09:57:14.664Z,4.08
2019-02-16T09:58:14.930Z,4.09
2019-02-16T09:59:15.202Z,4.38
2019-02-16T10:00:14.468Z,4.57
2019-02-16T10:01:14.529Z,4.65
2019-02-16T10:02:14.797Z,4.74
2019-02-16T10:03:15.056Z,4.71
2019-02-16T10:04:15.327Z,4.81
2019-02-16T10:05:14.605Z,4.75
2019-02-16T10:06:14.880Z,4.84
2019-02-16T10:07:15.142Z,4.86
2019-02-16T10:08:15.429Z,4.65
2019-02-16T10:09:14.695Z,4.75
2019-02-16T10:10:14.962Z,4.65
2019-02-16T10:11:15.021Z,4.91
2019-02-16T10:12:15.282Z,4.57
2019-02-16T10:13:14.541Z,4.47
2019-02-16T10:14:14.817Z,4.65
2019-02-16T10:15:15.082Z,4.82
2019-02-16T10:16:15.349Z,4.65
2019-02-16T10:17:14.615Z,4.54
2019-02-16T10:18:14.887Z,4.64
2019-02-16T10:19:15.163Z,4.86
2019-02-16T10:20:15.447Z,4.72
2019-02-16T10:21:14.496Z,4.95
2019-02-16T10:22:14.788Z,4.84
2019-02-16T10:23:15.051Z,4.86
2019-02-16T10:24:17.794Z,4.86
2019-02-16T10:25:14.638Z,4.81
2019-02-16T10:26:14.912Z,4.85
2019-02-16T10:27:15.241Z,5.09
2019-02-16T10:28:14.500Z,5.12
2019-02-16T10:29:14.762Z,4.76
2019-02-16T10:30:15.049Z,4.88
2019-02-16T10:31:15.072Z,5.00
2019-02-16T10:32:15.336Z,4.91
2019-02-16T10:33:14.599Z,4.78
2019-02-16T10:34:14.877Z,4.93
2019-02-16T10:35:15.139Z,5.23
2019-02-16T10:36:15.400Z,5.43
2019-02-16T10:37:14.670Z,5.35
2019-02-16T10:38:14.937Z,5.35
2019-02-16T10:39:15.210Z,5.27
2019-02-16T10:40:14.488Z,5.51
2019-02-16T10:41:14.521Z,5.50
2019-02-16T10:42:14.792Z,5.62
2019-02-16T10:43:15.060Z,5.72
2019-02-16T10:44:15.333Z,5.54
2019-02-16T10:45:14.613Z,5.62
2019-02-16T10:46:14.885Z,5.77
2019-02-16T10:47:15.165Z,6.13
2019-02-16T10:48:14.475Z,6.44
2019-02-16T10:49:15.002Z,6.41
2019-02-16T10:50:15.270Z,6.09
2019-02-16T10:51:15.320Z,5.98
2019-02-16T10:52:14.595Z,6.38
2019-02-16T10:53:14.858Z,6.84
2019-02-16T10:54:15.120Z,6.33
2019-02-16T10:55:15.382Z,6.31
2019-02-16T10:56:14.645Z,6.16
2019-02-16T10:57:14.908Z,6.13
2019-02-16T10:58:15.174Z,6.10
2019-02-16T10:59:15.445Z,6.65
2019-02-16T11:00:14.725Z,6.74
2019-02-16T11:01:14.794Z,6.94
2019-02-16T11:02:15.058Z,7.03
2019-02-16T11:03:15.332Z,6.96
2019-02-16T11:04:14.600Z,6.95
2019-02-16T11:05:14.885Z,6.95
2019-02-16T11:06:15.159Z,6.84
2019-02-16T11:07:17.289Z,6.71
2019-02-16T11:08:14.696Z,6.67
2019-02-16T11:09:14.968Z,6.68
2019-02-16T11:10:15.248Z,6.78
2019-02-16T11:11:15.282Z,7.16
2019-02-16T11:12:14.545Z,7.55
2019-02-16T11:13:14.819Z,7.59
2019-02-16T11:14:15.093Z,7.55
2019-02-16T11:15:15.438Z,7.65
2019-02-16T11:16:14.766Z,7.62
2019-02-16T11:17:15.030Z,7.41
2019-02-16T11:18:15.288Z,7.27
2019-02-16T11:19:14.550Z,7.58
2019-02-16T11:20:14.830Z,7.57
2019-02-16T11:21:14.856Z,7.62
2019-02-16T11:22:15.128Z,7.92
2019-02-16T11:23:15.411Z,8.08
2019-02-16T11:24:14.673Z,7.45
2019-02-16T11:25:14.949Z,7.58
2019-02-16T11:26:15.205Z,7.61
2019-02-16T11:27:14.473Z,7.66
2019-02-16T11:28:14.800Z,7.66
2019-02-16T11:29:15.077Z,7.92
2019-02-16T11:30:15.354Z,8.05
2019-02-16T11:31:15.394Z,8.09
2019-02-16T11:32:14.671Z,8.55
2019-02-16T11:33:14.934Z,8.37
2019-02-16T11:34:15.203Z,8.17
2019-02-16T11:35:14.473Z,8.31
2019-02-16T11:36:14.735Z,8.68
2019-02-16T11:37:15.006Z,8.68
2019-02-16T11:38:16.360Z,8.52
2019-02-16T11:39:14.751Z,8.03
2019-02-16T11:40:15.024Z,8.10
2019-02-16T11:41:18.767Z,8.29
2019-02-16T11:42:14.624Z,8.23
2019-02-16T11:43:14.884Z,8.36
2019-02-16T11:44:15.149Z,8.23
2019-02-16T11:45:15.406Z,8.39
2019-02-16T11:46:14.676Z,8.61
2019-02-16T11:47:14.950Z,8.78
2019-02-16T11:48:15.220Z,8.86
2019-02-16T11:49:14.488Z,8.85
2019-02-16T11:50:14.779Z,8.99
2019-02-16T11:51:15.708Z,9.19
2019-02-16T11:52:15.086Z,9.00
2019-02-16T11:53:15.342Z,9.09
2019-02-16T11:54:14.614Z,9.22
2019-02-16T11:55:14.885Z,8.79
2019-02-16T11:56:15.179Z,8.76
2019-02-16T11:57:15.433Z,9.09
2019-02-16T11:58:14.691Z,9.05
2019-02-16T11:59:14.965Z,9.19
2019-02-16T12:00:15.248Z,9.26
2019-02-16T12:01:15.305Z,9.41
2019-02-16T12:02:14.583Z,9.59
2019-02-16T12:03:14.853Z,8.98
2019-02-16T12:04:17.101Z,9.29
2019-02-16T12:05:14.555Z,9.96
2019-02-16T12:06:14.821Z,9.66
2019-02-16T12:07:15.097Z,9.51
2019-02-16T12:08:15.367Z,9.41
2019-02-16T12:09:16.332Z,9.55
2019-02-16T12:10:14.791Z,9.40
2019-02-16T12:11:14.851Z,9.33
2019-02-16T12:12:15.115Z,9.16
2019-02-16T12:13:15.382Z,9.40
2019-02-16T12:14:14.652Z,9.19
2019-02-16T12:15:14.922Z,9.20
2019-02-16T12:16:15.180Z,9.34
2019-02-16T12:17:15.448Z,9.41
2019-02-16T12:18:14.709Z,9.47
2019-02-16T12:19:14.969Z,9.69
2019-02-16T12:20:15.246Z,9.55
2019-02-16T12:21:15.298Z,9.27
2019-02-16T12:22:14.615Z,9.33
2019-02-16T12:23:14.885Z,9.31
2019-02-16T12:24:15.140Z,9.19
2019-02-16T12:25:15.402Z,9.10
2019-02-16T12:26:14.672Z,9.24
2019-02-16T12:27:14.940Z,9.24
2019-02-16T12:28:15.199Z,9.54
2019-02-16T12:29:14.460Z,9.55
2019-02-16T12:30:14.742Z,9.57
2019-02-16T12:31:14.793Z,9.45
2019-02-16T12:32:15.056Z,9.36
2019-02-16T12:33:15.318Z,9.34
2019-02-16T12:34:14.595Z,9.20
2019-02-16T12:35:14.854Z,9.40
2019-02-16T12:36:15.119Z,9.30
2019-02-16T12:37:15.383Z,9.38
2019-02-16T12:38:14.637Z,9.44
2019-02-16T12:39:14.915Z,9.93
2019-02-16T12:40:15.184Z,10.10
2019-02-16T12:41:15.226Z,9.81
2019-02-16T12:42:14.491Z,9.81
2019-02-16T12:43:14.762Z,9.59
2019-02-16T12:44:15.021Z,9.68
2019-02-16T12:45:15.289Z,9.50
2019-02-16T12:46:14.551Z,10.21
2019-02-16T12:47:14.818Z,9.82
2019-02-16T12:48:15.078Z,9.88
2019-02-16T12:49:15.627Z,10.54
2019-02-16T12:50:14.902Z,10.54
2019-02-16T12:51:14.965Z,10.71
2019-02-16T12:52:15.223Z,10.51
2019-02-16T12:53:14.488Z,10.26
2019-02-16T12:54:14.768Z,10.50
2019-02-16T12:55:15.210Z,10.79
2019-02-16T12:56:14.511Z,10.65
2019-02-16T12:57:14.781Z,10.71
2019-02-16T12:58:15.051Z,11.09
2019-02-16T12:59:15.636Z,11.50
2019-02-16T13:00:14.919Z,11.60